createdAt,value
2023-11-18T00:01:37.297Z,1.85
2023-11-18T00:07:00.859Z,1.83
2023-11-18T00:12:25.645Z,1.58
2023-11-18T00:17:47.729Z,1.47
2023-11-18T00:23:09.770Z,1.40
2023-11-18T00:28:31.722Z,1.88
2023-11-18T00:33:53.946Z,1.55
2023-11-18T00:39:15.786Z,1.75
2023-11-18T00:44:37.706Z,1.85
2023-11-18T00:50:03.412Z,1.58
2023-11-18T00:55:25.465Z,1.40
2023-11-18T01:00:47.863Z,1.70
2023-11-18T01:06:09.924Z,1.40
2023-11-18T01:11:31.914Z,1.70
2023-11-18T01:16:54.059Z,2.10
2023-11-18T01:22:15.967Z,1.33
2023-11-18T01:27:37.997Z,1.50
2023-11-18T01:33:03.400Z,1.50
2023-11-18T01:38:25.993Z,1.55
2023-11-18T01:43:48.265Z,1.70
2023-11-18T01:49:10.177Z,1.40
2023-11-18T01:54:33.567Z,1.50
2023-11-18T01:59:56.049Z,1.58
2023-11-18T02:05:19.588Z,1.50
2023-11-18T02:11:12.992Z,1.65
2023-11-18T02:16:35.574Z,1.33
2023-11-18T02:21:58.467Z,1.50
2023-11-18T02:27:23.575Z,1.40
2023-11-18T02:33:16.028Z,1.75
2023-11-18T02:38:46.481Z,1.50
2023-11-18T02:44:11.658Z,1.52
2023-11-18T02:49:36.306Z,1.25
2023-11-18T02:54:58.587Z,1.60
2023-11-18T03:00:23.365Z,1.30
2023-11-18T03:05:45.330Z,1.30
2023-11-18T03:11:10.462Z,1.27
2023-11-18T03:16:32.412Z,1.38
2023-11-18T03:21:54.715Z,1.25
2023-11-18T03:27:16.594Z,1.00
2023-11-18T03:32:39.964Z,1.45
2023-11-18T03:38:01.802Z,1.10
2023-11-18T03:43:23.672Z,1.55
2023-11-18T03:48:45.889Z,1.20
2023-11-18T03:54:09.898Z,1.63
2023-11-18T03:59:32.072Z,1.17
2023-11-18T04:04:54.634Z,1.13
2023-11-18T04:10:16.880Z,1.20
2023-11-18T04:15:38.717Z,1.35
2023-11-18T04:21:00.773Z,1.35
2023-11-18T04:26:22.596Z,1.30
2023-11-18T04:31:44.730Z,1.10
2023-11-18T04:37:07.354Z,1.35
2023-11-18T04:42:31.064Z,1.38
2023-11-18T04:47:53.276Z,1.10
2023-11-18T04:53:15.275Z,1.33
2023-11-18T04:58:40.494Z,1.17
2023-11-18T05:04:02.478Z,1.00
2023-11-18T05:09:24.510Z,1.63
2023-11-18T05:14:46.371Z,1.10
2023-11-18T05:20:12.741Z,1.02
2023-11-18T05:25:34.664Z,1.10
2023-11-18T05:30:59.484Z,1.17
2023-11-18T05:36:28.394Z,1.27
2023-11-18T05:41:51.409Z,1.20
2023-11-18T05:47:14.752Z,1.00
2023-11-18T05:52:36.817Z,1.10
2023-11-18T05:57:58.683Z,0.95
2023-11-18T06:03:21.462Z,1.05
2023-11-18T06:08:44.459Z,0.95
2023-11-18T06:14:09.838Z,1.00
2023-11-18T06:19:32.080Z,1.00
2023-11-18T06:24:54.397Z,0.95
2023-11-18T06:30:19.377Z,1.02
2023-11-18T06:35:41.591Z,1.10
2023-11-18T06:41:07.350Z,1.10
2023-11-18T06:46:35.870Z,1.00
2023-11-18T06:51:57.820Z,0.70
2023-11-18T06:57:20.282Z,1.17
2023-11-18T07:02:42.487Z,0.82
2023-11-18T07:08:04.680Z,0.80
2023-11-18T07:13:26.566Z,1.00
2023-11-18T07:18:48.538Z,0.85
2023-11-18T07:24:10.659Z,0.88
2023-11-18T07:29:33.902Z,0.65
2023-11-18T07:34:57.202Z,0.98
2023-11-18T07:40:27.801Z,0.73
2023-11-18T07:45:57.534Z,1.00
2023-11-18T07:51:22.824Z,0.98
2023-11-18T07:56:47.519Z,0.80
2023-11-18T08:02:11.198Z,1.03
2023-11-18T08:07:33.665Z,0.90
2023-11-18T08:12:55.964Z,0.93
2023-11-18T08:18:17.844Z,0.70
2023-11-18T08:23:40.721Z,0.50
2023-11-18T08:29:03.036Z,0.70
2023-11-18T08:34:27.231Z,0.70
2023-11-18T08:39:49.081Z,0.68
2023-11-18T08:45:15.795Z,0.50
2023-11-18T08:50:41.610Z,0.60
2023-11-18T08:56:07.107Z,0.68
2023-11-18T09:01:29.877Z,0.70
2023-11-18T09:06:55.661Z,0.68
2023-11-18T09:12:19.514Z,0.70
2023-11-18T09:17:41.440Z,0.40
2023-11-18T09:23:03.525Z,0.50
2023-11-18T09:28:26.221Z,0.60
2023-11-18T09:33:54.740Z,1.20
2023-11-18T09:39:30.623Z,0.75
2023-11-18T09:50:19.445Z,0.80
2023-11-18T09:56:01.415Z,0.98
2023-11-18T10:01:24.872Z,1.35
2023-11-18T10:06:49.161Z,1.10
2023-11-18T10:12:13.861Z,1.00
2023-11-18T10:17:38.313Z,1.03
2023-11-18T10:23:12.021Z,0.95
2023-11-18T10:28:36.426Z,1.42
2023-11-18T10:34:00.459Z,1.02
2023-11-18T10:39:25.494Z,0.90
2023-11-18T10:45:02.879Z,0.80
2023-11-18T10:50:24.940Z,0.80
2023-11-18T10:55:47.556Z,1.00
2023-11-18T11:01:13.059Z,0.60
2023-11-18T11:12:08.221Z,0.80
2023-11-18T11:17:32.502Z,2.10
2023-11-18T11:22:54.709Z,2.33
2023-11-18T11:28:23.765Z,2.55
2023-11-18T11:33:56.563Z,2.15
2023-11-18T11:39:27.046Z,2.08
2023-11-18T11:44:54.766Z,1.70
2023-11-18T11:50:39.310Z,1.85
2023-11-18T11:56:15.656Z,1.20
2023-11-18T12:01:39.102Z,1.38
2023-11-18T12:07:12.352Z,1.48
2023-11-18T12:12:38.637Z,1.23
2023-11-18T12:18:04.858Z,1.10
2023-11-18T12:23:27.357Z,0.88
2023-11-18T12:28:49.634Z,1.15
2023-11-18T12:34:12.653Z,0.80
2023-11-18T12:39:54.212Z,1.15
2023-11-18T12:45:56.849Z,0.90
2023-11-18T12:51:21.781Z,0.80
2023-11-18T12:56:49.878Z,1.00
2023-11-18T13:02:21.369Z,0.73
2023-11-18T13:07:44.800Z,0.70
2023-11-18T13:13:06.729Z,0.88
2023-11-18T13:18:29.069Z,0.70
2023-11-18T13:23:54.334Z,0.93
2023-11-18T13:29:17.598Z,0.63
2023-11-18T13:34:43.676Z,0.70
2023-11-18T13:40:07.375Z,0.70
2023-11-18T13:45:36.401Z,0.77
2023-11-18T13:51:00.575Z,0.50
2023-11-18T13:56:23.896Z,0.70
2023-11-18T14:01:45.940Z,0.57
2023-11-18T14:07:08.041Z,0.70
2023-11-18T14:12:30.068Z,0.57
2023-11-18T14:17:54.005Z,0.70
2023-11-18T14:23:15.977Z,0.60
2023-11-18T14:28:39.101Z,0.70
2023-11-18T14:34:01.439Z,0.63
2023-11-18T14:39:24.358Z,1.30
2023-11-18T14:44:46.251Z,1.10
2023-11-18T14:50:16.917Z,1.27
2023-11-18T14:55:38.885Z,0.82
2023-11-18T15:01:01.843Z,1.00
2023-11-18T15:06:27.820Z,1.17
2023-11-18T15:11:51.683Z,0.90
2023-11-18T15:17:15.286Z,0.82
2023-11-18T15:22:37.216Z,1.20
2023-11-18T15:28:00.232Z,0.80
2023-11-18T15:33:22.244Z,0.80
2023-11-18T15:38:44.920Z,1.10
2023-11-18T15:44:07.216Z,0.90
2023-11-18T15:49:29.194Z,1.25
2023-11-18T15:54:51.063Z,0.80
2023-11-18T16:00:21.772Z,0.90
2023-11-18T16:05:43.636Z,0.90
2023-11-18T16:11:06.548Z,1.20
2023-11-18T16:16:28.792Z,0.80
2023-11-18T16:21:52.909Z,0.93
2023-11-18T16:27:16.198Z,0.80
2023-11-18T16:32:38.315Z,0.70
2023-11-18T16:38:02.122Z,0.98
2023-11-18T16:43:24.429Z,0.93
2023-11-18T16:48:46.594Z,1.50
2023-11-18T16:54:09.025Z,0.90
2023-11-18T16:59:31.701Z,0.90
2023-11-18T17:04:53.916Z,1.08
2023-11-18T17:10:16.528Z,1.55
2023-11-18T17:15:38.440Z,1.23
2023-11-18T17:21:01.736Z,1.58
2023-11-18T17:26:25.431Z,1.00
2023-11-18T17:31:47.544Z,1.10
2023-11-18T17:37:09.543Z,1.35
2023-11-18T17:42:32.387Z,0.93
2023-11-18T17:47:54.365Z,0.80
2023-11-18T17:53:16.473Z,1.27
2023-11-18T17:58:39.252Z,1.50
2023-11-18T18:04:01.544Z,1.35
2023-11-18T18:09:25.749Z,1.77
2023-11-18T18:14:47.653Z,1.50
2023-11-18T18:20:13.805Z,1.48
2023-11-18T18:25:35.896Z,1.77
2023-11-18T18:30:58.438Z,1.92
2023-11-18T18:36:23.086Z,2.78
2023-11-18T18:41:48.107Z,2.33
2023-11-18T18:47:10.217Z,2.25
2023-11-18T18:52:32.199Z,1.52
2023-11-18T18:57:54.091Z,1.98
2023-11-18T19:03:16.080Z,1.77
2023-11-18T19:08:38.546Z,2.13
2023-11-18T19:14:00.574Z,1.85
2023-11-18T19:19:23.016Z,1.77
2023-11-18T19:24:45.906Z,1.35
2023-11-18T19:30:10.294Z,1.50
2023-11-18T19:35:32.756Z,1.48
2023-11-18T19:40:54.696Z,1.35
2023-11-18T19:46:17.596Z,1.42
2023-11-18T19:51:39.547Z,1.50
2023-11-18T19:57:01.669Z,0.90
2023-11-18T20:02:24.729Z,1.15
2023-11-18T20:07:46.743Z,1.65
2023-11-18T20:13:08.597Z,1.27
2023-11-18T20:18:30.442Z,1.45
2023-11-18T20:23:52.917Z,1.13
2023-11-18T20:29:17.360Z,1.75
2023-11-18T20:34:39.297Z,1.27
2023-11-18T20:40:01.420Z,1.20
2023-11-18T20:45:24.076Z,1.08
2023-11-18T20:50:52.387Z,0.90
2023-11-18T20:56:14.566Z,0.75
2023-11-18T21:01:36.576Z,1.00
2023-11-18T21:06:58.619Z,1.40
2023-11-18T21:12:20.482Z,0.85
2023-11-18T21:17:42.472Z,1.13
2023-11-18T21:23:05.905Z,1.02
2023-11-18T21:28:27.832Z,1.52
2023-11-18T21:33:49.694Z,1.15
2023-11-18T21:39:15.208Z,0.75
2023-11-18T21:44:38.658Z,1.30
2023-11-18T21:50:00.945Z,0.90
2023-11-18T21:55:23.172Z,1.10
2023-11-18T22:00:45.860Z,1.17
2023-11-18T22:06:08.004Z,0.73
2023-11-18T22:11:37.036Z,0.88
2023-11-18T22:16:59.306Z,1.00
2023-11-18T22:22:21.643Z,0.70
2023-11-18T22:27:43.474Z,1.08
2023-11-18T22:33:07.025Z,1.20
2023-11-18T22:38:28.945Z,0.90
2023-11-18T22:43:51.570Z,0.68
2023-11-18T22:49:15.361Z,0.65
2023-11-18T22:54:40.389Z,0.80
2023-11-18T23:00:04.781Z,0.60
2023-11-18T23:05:27.027Z,0.60
2023-11-18T23:10:49.082Z,0.88
2023-11-18T23:16:15.150Z,0.40
2023-11-18T23:21:37.137Z,0.60
2023-11-18T23:26:59.047Z,0.75
2023-11-18T23:32:20.985Z,0.55
2023-11-18T23:37:47.065Z,0.50
2023-11-18T23:43:08.991Z,0.65
2023-11-18T23:48:31.538Z,0.55
2023-11-18T23:53:54.758Z,0.50
2023-11-18T23:59:16.731Z,0.50
